createdAt,value
2022-08-07T00:00:35.893Z,101650.41
2022-08-07T00:03:47.384Z,101649.59
2022-08-07T00:06:52.280Z,101644.28
2022-08-07T00:10:19.172Z,101647.88
2022-08-07T00:13:24.038Z,101649.69
2022-08-07T00:16:28.308Z,101651.53
2022-08-07T00:20:02.529Z,101665.78
2022-08-07T00:22:56.574Z,101664.94
2022-08-07T00:26:13.158Z,101656.88
2022-08-07T00:29:31.344Z,101667.59
2022-08-07T00:32:34.960Z,101664.97
2022-08-07T00:35:37.445Z,101664.09
2022-08-07T00:38:40.322Z,101669.44
2022-08-07T00:41:53.159Z,101658.75
2022-08-07T00:44:56.440Z,101669.47
2022-08-07T00:48:10.351Z,101663.22
2022-08-07T00:51:13.845Z,101668.56
2022-08-07T00:54:16.167Z,101650.72
2022-08-07T00:57:25.747Z,101670.31
2022-08-07T01:00:29.050Z,101666.75
2022-08-07T01:03:57.392Z,101670.31
2022-08-07T01:06:57.465Z,101663.13
2022-08-07T01:10:06.196Z,101675.56
2022-08-07T01:13:12.733Z,101682.69
2022-08-07T01:16:30.511Z,101678.16
2022-08-07T01:19:35.149Z,101662.09
2022-08-07T01:22:53.993Z,101672.72
2022-08-07T01:26:04.407Z,101666.47
2022-08-07T01:29:06.983Z,101678.88
2022-08-07T01:32:12.490Z,101670.81
2022-08-07T01:35:19.894Z,101664.66
2022-08-07T01:38:29.732Z,101673.56
2022-08-07T01:41:40.890Z,101669.06
2022-08-07T01:45:16.092Z,101665.34
2022-08-07T01:48:30.171Z,101679.53
2022-08-07T01:52:03.755Z,101679.53
2022-08-07T01:55:00.731Z,101680.34
2022-08-07T01:58:27.166Z,101675.03
2022-08-07T02:01:59.897Z,101667.88
2022-08-07T02:05:06.489Z,101677.75
2022-08-07T02:08:14.175Z,101673.09
2022-08-07T02:11:30.922Z,101669.38
2022-08-07T02:14:49.592Z,101676.41
2022-08-07T02:17:58.027Z,101674.56
2022-08-07T02:21:06.200Z,101672.00
2022-08-07T02:24:11.279Z,101663.94
2022-08-07T02:27:22.806Z,101661.16
2022-08-07T02:30:27.375Z,101653.97
2022-08-07T02:33:42.310Z,101664.47
2022-08-07T02:36:57.368Z,101648.56
2022-08-07T02:40:30.254Z,101669.09
2022-08-07T02:43:28.619Z,101660.72
2022-08-07T02:46:32.249Z,101669.72
2022-08-07T02:49:58.785Z,101671.47
2022-08-07T02:53:10.967Z,101674.34
2022-08-07T02:56:21.638Z,101668.97
2022-08-07T02:59:27.685Z,101667.06
2022-08-07T03:02:54.290Z,101670.50
2022-08-07T03:05:59.446Z,101671.22
2022-08-07T03:09:04.827Z,101670.19
2022-08-07T03:12:16.125Z,101675.38
2022-08-07T03:15:48.038Z,101677.41
2022-08-07T03:18:52.327Z,101676.97
2022-08-07T03:21:55.948Z,101671.00
2022-08-07T03:25:00.260Z,101689.56
2022-08-07T03:28:38.544Z,101682.44
2022-08-07T03:31:43.530Z,101686.66
2022-08-07T03:35:00.884Z,101692.97
2022-08-07T03:38:13.821Z,101692.28
2022-08-07T03:41:19.311Z,101691.25
2022-08-07T03:44:42.261Z,101691.38
2022-08-07T03:47:51.413Z,101699.34
2022-08-07T03:50:57.928Z,101703.00
2022-08-07T03:54:35.624Z,101704.00
2022-08-07T03:58:08.697Z,101696.94
2022-08-07T04:01:00.294Z,101691.63
2022-08-07T04:04:06.811Z,101696.09
2022-08-07T04:07:17.319Z,101699.66
2022-08-07T04:10:22.001Z,101702.34
2022-08-07T04:13:27.759Z,101705.94
2022-08-07T04:16:32.553Z,101700.63
2022-08-07T04:19:52.211Z,101706.75
2022-08-07T04:23:01.455Z,101698.00
2022-08-07T04:26:16.789Z,101708.75
2022-08-07T04:29:30.475Z,101716.84
2022-08-07T04:32:57.846Z,101717.91
2022-08-07T04:36:02.582Z,101711.72
2022-08-07T04:39:10.525Z,101720.72
2022-08-07T04:42:13.578Z,101722.53
2022-08-07T04:45:22.387Z,101724.38
2022-08-07T04:48:51.038Z,101729.00
2022-08-07T04:52:07.319Z,101730.81
2022-08-07T04:58:12.863Z,101730.88
2022-08-07T05:02:20.692Z,101741.69
2022-08-07T05:05:52.858Z,101740.91
2022-08-07T05:09:28.033Z,101740.94
2022-08-07T05:12:56.092Z,101745.47
2022-08-07T05:16:05.825Z,101752.66
2022-08-07T05:19:12.492Z,101757.13
2022-08-07T05:22:26.513Z,101760.72
2022-08-07T05:26:08.869Z,101757.22
2022-08-07T05:28:58.032Z,101749.31
2022-08-07T05:32:04.310Z,101753.81
2022-08-07T05:35:09.201Z,101754.75
2022-08-07T05:38:12.651Z,101757.47
2022-08-07T05:42:01.251Z,101749.53
2022-08-07T05:45:14.682Z,101751.38
2022-08-07T05:48:26.362Z,101758.59
2022-08-07T05:51:31.794Z,101752.38
2022-08-07T05:54:44.513Z,101757.75
2022-08-07T05:57:58.461Z,101747.91
2022-08-07T06:01:01.840Z,101753.16
2022-08-07T06:04:09.196Z,101747.59
2022-08-07T06:07:23.075Z,101744.66
2022-08-07T06:10:38.979Z,101748.66
2022-08-07T06:14:11.479Z,101741.00
2022-08-07T06:17:08.553Z,101748.16
2022-08-07T06:20:25.241Z,101745.63
2022-08-07T06:24:37.242Z,101736.72
2022-08-07T06:26:56.718Z,101735.69
2022-08-07T06:30:00.713Z,101734.84
2022-08-07T06:33:04.698Z,101740.25
2022-08-07T06:36:13.699Z,101736.38
2022-08-07T06:40:16.830Z,101742.25
2022-08-07T06:42:51.525Z,101736.41
2022-08-07T06:46:12.732Z,101739.50
2022-08-07T06:49:16.202Z,101729.94
2022-08-07T06:52:31.638Z,101741.94
2022-08-07T06:56:00.365Z,101733.16
2022-08-07T07:00:12.931Z,101744.59
2022-08-07T07:02:54.313Z,101743.16
2022-08-07T07:06:05.436Z,101747.31
2022-08-07T07:09:19.893Z,101754.88
2022-08-07T07:12:50.315Z,101753.56
2022-08-07T07:16:01.097Z,101745.03
2022-08-07T07:19:34.027Z,101733.03
2022-08-07T07:22:36.236Z,101743.06
2022-08-07T07:26:34.175Z,101740.56
2022-08-07T07:29:39.079Z,101735.66
2022-08-07T07:32:40.798Z,101734.28
2022-08-07T07:36:04.899Z,101738.06
2022-08-07T07:39:09.332Z,101729.59
2022-08-07T07:42:13.886Z,101722.13
2022-08-07T07:46:35.535Z,101723.09
2022-08-07T07:48:47.046Z,101716.19
2022-08-07T07:51:57.961Z,101717.78
2022-08-07T07:55:03.832Z,101717.66
2022-08-07T07:58:06.755Z,101712.16
2022-08-07T08:02:03.683Z,101716.78
2022-08-07T08:04:36.051Z,101726.94
2022-08-07T08:07:42.414Z,101714.84
2022-08-07T08:11:04.695Z,101720.16
2022-08-07T08:14:07.064Z,101719.66
2022-08-07T08:17:56.418Z,101725.88
2022-08-07T08:20:34.541Z,101719.50
2022-08-07T08:23:57.823Z,101713.16
2022-08-07T08:27:09.807Z,101720.28
2022-08-07T08:30:14.319Z,101726.63
2022-08-07T08:33:25.155Z,101717.75
2022-08-07T08:36:33.813Z,101721.81
2022-08-07T08:39:39.588Z,101727.91
2022-08-07T08:43:04.724Z,101724.69
2022-08-07T08:46:11.824Z,101722.53
2022-08-07T08:49:33.244Z,101716.53
2022-08-07T08:52:57.708Z,101721.13
2022-08-07T08:56:08.406Z,101713.03
2022-08-07T08:59:16.388Z,101723.75
2022-08-07T09:02:41.927Z,101728.81
2022-08-07T09:06:11.477Z,101722.06
2022-08-07T09:09:20.929Z,101726.94
2022-08-07T09:12:54.440Z,101727.28
2022-08-07T09:16:22.202Z,101717.84
2022-08-07T09:19:53.707Z,101723.53
2022-08-07T09:24:33.795Z,101712.63
2022-08-07T09:27:22.517Z,101701.09
2022-08-07T09:30:28.452Z,101708.63
2022-08-07T09:33:53.059Z,101709.88
2022-08-07T09:37:06.666Z,101706.91
2022-08-07T09:40:12.435Z,101697.13
2022-08-07T09:44:03.053Z,101690.06
2022-08-07T09:47:55.115Z,101700.84
2022-08-07T09:51:26.128Z,101697.72
2022-08-07T09:54:39.195Z,101692.00
2022-08-07T09:58:20.660Z,101686.91
2022-08-07T10:01:51.391Z,101683.00
2022-08-07T10:05:58.164Z,101679.34
2022-08-07T10:08:56.852Z,101683.53
2022-08-07T10:12:26.419Z,101676.78
2022-08-07T10:15:40.284Z,101681.19
2022-08-07T10:19:01.242Z,101671.03
2022-08-07T10:22:17.171Z,101671.13
2022-08-07T10:25:32.895Z,101666.25
2022-08-07T10:29:16.686Z,101665.56
2022-08-07T10:32:51.577Z,101663.88
2022-08-07T10:36:11.038Z,101663.69
2022-08-07T10:39:14.970Z,101662.38
2022-08-07T10:42:31.141Z,101660.25
2022-08-07T10:45:57.580Z,101668.16
2022-08-07T10:49:14.519Z,101660.09
2022-08-07T10:52:33.881Z,101652.69
2022-08-07T10:55:48.523Z,101657.97
2022-08-07T10:59:21.449Z,101657.97
2022-08-07T11:02:34.234Z,101650.16
2022-08-07T11:06:04.768Z,101645.66
2022-08-07T11:10:09.677Z,101643.41
2022-08-07T11:12:43.336Z,101640.66
2022-08-07T11:16:08.961Z,101631.19
2022-08-07T11:19:38.780Z,101640.78
2022-08-07T11:23:20.769Z,101624.53
2022-08-07T11:26:53.764Z,101636.38
2022-08-07T11:30:18.694Z,101639.84
2022-08-07T11:33:53.518Z,101643.50
2022-08-07T11:37:38.604Z,101638.84
2022-08-07T11:41:04.502Z,101630.47
2022-08-07T11:44:19.041Z,101618.75
2022-08-07T11:48:17.929Z,101615.97
2022-08-07T11:51:41.270Z,101610.94
2022-08-07T11:55:18.591Z,101609.50
2022-08-07T11:58:33.840Z,101608.78
2022-08-07T12:01:59.300Z,101600.72
2022-08-07T12:05:28.555Z,101610.03
2022-08-07T12:08:57.019Z,101610.56
2022-08-07T12:12:12.082Z,101603.28
2022-08-07T12:15:46.216Z,101597.56
2022-08-07T12:19:14.682Z,101588.22
2022-08-07T12:22:37.657Z,101586.59
2022-08-07T12:26:21.961Z,101584.03
2022-08-07T12:29:38.722Z,101575.34
2022-08-07T12:32:53.187Z,101574.19
2022-08-07T12:35:58.365Z,101594.88
2022-08-07T12:39:41.110Z,101588.50
2022-08-07T12:42:32.178Z,101586.25
2022-08-07T12:45:50.247Z,101593.09
2022-08-07T12:48:59.065Z,101582.16
2022-08-07T12:52:20.549Z,101573.03
2022-08-07T12:56:02.989Z,101585.34
2022-08-07T12:59:08.255Z,101575.44
2022-08-07T13:03:00.615Z,101564.56
2022-08-07T13:06:27.691Z,101566.47
2022-08-07T13:10:20.150Z,101559.31
2022-08-07T13:13:48.946Z,101557.13
2022-08-07T13:17:12.594Z,101571.16
2022-08-07T13:20:27.713Z,101567.34
2022-08-07T13:24:02.854Z,101566.78
2022-08-07T13:27:20.494Z,101561.47
2022-08-07T13:30:41.399Z,101559.22
2022-08-07T13:34:32.973Z,101550.06
2022-08-07T13:37:58.502Z,101544.91
2022-08-07T13:41:06.861Z,101539.28
2022-08-07T13:44:12.923Z,101538.50
2022-08-07T13:47:42.231Z,101545.97
2022-08-07T13:50:44.303Z,101544.44
2022-08-07T13:54:03.051Z,101537.94
2022-08-07T13:57:14.582Z,101531.91
2022-08-07T14:00:39.732Z,101531.41
2022-08-07T14:04:07.731Z,101522.84
2022-08-07T14:07:11.937Z,101531.03
2022-08-07T14:10:24.730Z,101527.06
2022-08-07T14:13:33.446Z,101526.00
2022-08-07T14:16:50.566Z,101515.97
2022-08-07T14:20:40.933Z,101493.69
2022-08-07T14:24:00.220Z,101508.72
2022-08-07T14:27:00.324Z,101495.34
2022-08-07T14:30:11.213Z,101497.53
2022-08-07T14:33:15.900Z,101502.41
2022-08-07T14:36:25.852Z,101494.75
2022-08-07T14:40:18.193Z,101499.06
2022-08-07T14:43:55.475Z,101499.56
2022-08-07T14:46:31.475Z,101490.53
2022-08-07T14:53:07.795Z,101490.03
2022-08-07T14:56:14.120Z,101488.97
2022-08-07T15:00:03.240Z,101495.69
2022-08-07T15:02:46.978Z,101492.72
2022-08-07T15:06:03.685Z,101492.47
2022-08-07T15:09:58.313Z,101485.09
2022-08-07T15:12:36.685Z,101484.72
2022-08-07T15:15:52.561Z,101476.59
2022-08-07T15:18:56.495Z,101472.16
2022-08-07T15:22:07.010Z,101467.75
2022-08-07T15:25:36.756Z,101461.88
2022-08-07T15:32:39.545Z,101460.88
2022-08-07T15:36:01.295Z,101468.34
2022-08-07T15:39:10.759Z,101456.72
2022-08-07T15:42:45.115Z,101456.91
2022-08-07T15:45:56.613Z,101454.06
2022-08-07T15:49:13.257Z,101450.97
2022-08-07T15:52:30.782Z,101449.03
2022-08-07T15:55:53.267Z,101449.09
2022-08-07T15:59:00.364Z,101433.88
2022-08-07T16:02:04.452Z,101441.84
2022-08-07T16:05:20.349Z,101433.47
2022-08-07T16:08:31.867Z,101430.72
2022-08-07T16:11:50.141Z,101429.38
2022-08-07T16:15:07.637Z,101429.63
2022-08-07T16:18:50.052Z,101425.06
2022-08-07T16:22:06.620Z,101424.19
2022-08-07T16:25:23.438Z,101421.63
2022-08-07T16:30:06.976Z,101423.78
2022-08-07T16:32:35.904Z,101417.56
2022-08-07T16:35:58.509Z,101429.94
2022-08-07T16:39:33.688Z,101429.78
2022-08-07T16:43:05.233Z,101429.50
2022-08-07T16:47:06.681Z,101434.75
2022-08-07T16:50:39.322Z,101426.19
2022-08-07T16:54:32.513Z,101436.91
2022-08-07T16:58:02.597Z,101432.97
2022-08-07T17:01:34.284Z,101440.13
2022-08-07T17:04:57.651Z,101434.66
2022-08-07T17:08:03.375Z,101436.31
2022-08-07T17:11:21.989Z,101439.03
2022-08-07T17:14:53.145Z,101442.31
2022-08-07T17:18:16.115Z,101438.53
2022-08-07T17:21:23.884Z,101451.47
2022-08-07T17:25:00.020Z,101447.84
2022-08-07T17:28:38.449Z,101456.78
2022-08-07T17:32:02.842Z,101457.53
2022-08-07T17:35:49.663Z,101460.97
2022-08-07T17:39:02.278Z,101462.44
2022-08-07T17:42:31.916Z,101471.09
2022-08-07T17:45:42.301Z,101471.84
2022-08-07T17:49:00.038Z,101480.69
2022-08-07T17:52:40.031Z,101487.69
2022-08-07T17:56:06.482Z,101476.78
2022-08-07T17:59:26.217Z,101484.72
2022-08-07T18:02:53.845Z,101470.56
2022-08-07T18:06:06.451Z,101484.91
2022-08-07T18:09:48.284Z,101488.97
2022-08-07T18:12:55.289Z,101496.41
2022-08-07T18:16:36.222Z,101485.81
2022-08-07T18:21:07.604Z,101489.28
2022-08-07T18:23:50.587Z,101496.59
2022-08-07T18:27:38.906Z,101496.78
2022-08-07T18:31:25.102Z,101504.13
2022-08-07T18:35:00.636Z,101504.03
2022-08-07T18:38:58.400Z,101506.25
2022-08-07T18:42:41.633Z,101508.13
2022-08-07T18:46:24.472Z,101508.66
2022-08-07T18:50:35.071Z,101510.97
2022-08-07T18:53:22.628Z,101510.81
2022-08-07T18:56:58.274Z,101507.13
2022-08-07T19:00:33.046Z,101520.28
2022-08-07T19:04:17.242Z,101521.81
2022-08-07T19:07:51.620Z,101526.03
2022-08-07T19:11:35.114Z,101527.22
2022-08-07T19:14:58.753Z,101532.00
2022-08-07T19:18:34.807Z,101528.59
2022-08-07T19:21:56.173Z,101526.97
2022-08-07T19:26:21.741Z,101531.69
2022-08-07T19:30:56.495Z,101533.75
2022-08-07T19:32:18.599Z,101542.06
2022-08-07T19:35:33.294Z,101537.97
2022-08-07T19:38:52.595Z,101536.44
2022-08-07T19:42:08.398Z,101539.22
2022-08-07T19:46:05.515Z,101545.59
2022-08-07T19:49:00.013Z,101543.09
2022-08-07T19:52:03.788Z,101534.16
2022-08-07T19:55:17.181Z,101542.28
2022-08-07T19:58:52.300Z,101538.41
2022-08-07T20:02:51.692Z,101534.00
2022-08-07T20:06:15.605Z,101538.53
2022-08-07T20:10:35.472Z,101544.00
2022-08-07T20:12:55.499Z,101532.53
2022-08-07T20:15:58.424Z,101537.97
2022-08-07T20:19:04.398Z,101544.31
2022-08-07T20:22:14.398Z,101550.63
2022-08-07T20:25:22.007Z,101546.28
2022-08-07T20:28:30.789Z,101545.34
2022-08-07T20:31:33.565Z,101547.22
2022-08-07T20:34:50.826Z,101549.94
2022-08-07T20:37:58.915Z,101559.06
2022-08-07T20:45:32.123Z,101552.81
2022-08-07T20:48:32.375Z,101547.56
2022-08-07T20:51:40.361Z,101552.09
2022-08-07T20:54:55.632Z,101554.84
2022-08-07T20:58:09.093Z,101552.19
2022-08-07T21:01:22.325Z,101552.22
2022-08-07T21:04:30.318Z,101554.91
2022-08-07T21:07:36.530Z,101550.47
2022-08-07T21:10:40.023Z,101553.31
2022-08-07T21:14:16.354Z,101551.59
2022-08-07T21:18:03.361Z,101551.53
2022-08-07T21:20:56.455Z,101553.34
2022-08-07T21:24:07.937Z,101559.56
2022-08-07T21:27:27.146Z,101559.59
2022-08-07T21:32:42.785Z,101557.00
2022-08-07T21:35:10.804Z,101567.72
2022-08-07T21:38:44.396Z,101554.31
2022-08-07T21:42:41.888Z,101559.72
2022-08-07T21:46:07.763Z,101561.50
2022-08-07T21:49:26.958Z,101560.66
2022-08-07T21:52:58.701Z,101566.94
2022-08-07T21:56:47.828Z,101569.63
2022-08-07T22:00:06.262Z,101560.69
2022-08-07T22:03:31.469Z,101568.72
2022-08-07T22:06:45.199Z,101560.69
2022-08-07T22:09:55.413Z,101561.59
2022-08-07T22:13:00.872Z,101569.63
2022-08-07T22:16:42.458Z,101562.50
2022-08-07T22:19:37.508Z,101568.75
2022-08-07T22:22:47.052Z,101573.19
2022-08-07T22:26:28.947Z,101564.28
2022-08-07T22:29:51.929Z,101568.78
2022-08-07T22:33:12.633Z,101569.63
2022-08-07T22:36:42.842Z,101578.50
2022-08-07T22:39:57.764Z,101571.38
2022-08-07T22:43:16.061Z,101570.47
2022-08-07T22:47:04.119Z,101566.91
2022-08-07T22:50:45.330Z,101570.50
2022-08-07T22:54:07.644Z,101574.94
2022-08-07T22:57:48.315Z,101567.78
2022-08-07T23:01:15.716Z,101574.91
2022-08-07T23:04:57.073Z,101580.22
2022-08-07T23:08:46.123Z,101580.22
2022-08-07T23:12:00.771Z,101576.66
2022-08-07T23:16:06.451Z,101577.50
2022-08-07T23:19:51.725Z,101583.75
2022-08-07T23:22:59.907Z,101584.63
2022-08-07T23:26:19.113Z,101591.75
2022-08-07T23:30:38.576Z,101594.41
2022-08-07T23:34:36.005Z,101597.97
2022-08-07T23:37:20.274Z,101606.84
2022-08-07T23:40:49.374Z,101597.97
2022-08-07T23:44:01.116Z,101597.00
2022-08-07T23:47:18.438Z,101597.94
2022-08-07T23:50:45.249Z,101599.72
2022-08-07T23:54:19.932Z,101596.97
2022-08-07T23:57:58.539Z,101601.31
